Fort Worth - NOAA's Hourly Summary for Sunday, May 6, 2018
Hour Temp
(f)
RH
(%)
Solar Rad.
(MJ/m2)
Rainfall
(in)
Wind
(mph)
5/6/2018 12:00 AM 67 54 0 0 1.01
5/6/2018 1:00 AM 65 62 0 0 2.14
5/6/2018 2:00 AM 64 65 0 0 2.46
5/6/2018 3:00 AM 63 64 0 0 2.59
5/6/2018 4:00 AM 61 69 0 0 2.54
5/6/2018 5:00 AM 62 67 0 0 3.49
5/6/2018 6:00 AM 61 68 0.01 0 2.58
5/6/2018 7:00 AM 63 65 0.3 0 2.27
5/6/2018 8:00 AM 67 61 0.98 0 3.65
5/6/2018 9:00 AM 73 51 1.71 0 3.44
5/6/2018 10:00 AM 76 46 2.36 0 4.88
5/6/2018 11:00 AM 79 37 2.86 0 1.96
5/6/2018 12:00 PM 81 33 3.18 0 2.96
5/6/2018 1:00 PM 82 31 3.33 0 4.17
5/6/2018 2:00 PM 84 28 3.26 0 3.44
5/6/2018 3:00 PM 85 27 2.99 0 2.26
5/6/2018 4:00 PM 87 26 2.48 0 1.7
5/6/2018 5:00 PM 86 25 1.9 0 2.58
5/6/2018 6:00 PM 86 26 1.17 0 2.98
5/6/2018 7:00 PM 83 30 0.11 0 3.32
5/6/2018 8:00 PM 79 40 0.02 0 3.04
5/6/2018 9:00 PM 76 46 0 0 2.9
5/6/2018 10:00 PM 73 54 0 0 2.85
5/6/2018 11:00 PM 72 54 0 0 3.63
Data Summary 73 47 26.66 0.00 2.87